Time;durP1;ratioP1;P1;durP2;ratioP2;P2;SDS_P1;SDS_P2;PMS_P1;PMS_P2;Temp;Humidity;BMP_temperature;BMP_pressure;BME280_temperature;BME280_humidity;BME280_pressure;Samples;Min_cycle;Max_cycle;Signal;HPM_P1;HPM_P2
2021/11/03 00:02:10;;;;;;;;;;;3.90;99.90;;;2.00;100.00;99758.91;2568132;30;138584;-39
2021/11/03 00:04:40;;;;;;;5.68;2.70;;;3.90;99.90;;;1.97;100.00;99764.66;2567049;30;137886;-39
2021/11/03 00:07:11;;;;;;;5.03;2.53;;;3.90;99.90;;;1.97;100.00;99759.28;2568538;30;138344;-39
2021/11/03 00:09:39;;;;;;;4.65;2.38;;;3.80;99.90;;;1.94;100.00;99762.34;2567523;30;137128;-39
2021/11/03 00:12:12;;;;;;;;;;;3.80;99.90;;;1.92;100.00;99764.38;2567349;30;138568;-39
2021/11/03 00:14:40;;;;;;;5.32;2.90;;;3.80;99.90;;;1.90;100.00;99753.78;2569491;30;136830;-39
2021/11/03 00:17:08;;;;;;;5.95;3.03;;;3.80;99.90;;;1.97;100.00;99751.22;2568953;30;137311;-39
2021/11/03 00:19:36;;;;;;;6.78;3.35;;;3.80;99.90;;;2.04;100.00;99751.31;2568809;30;136790;-39
2021/11/03 00:22:04;;;;;;;9.07;3.60;;;3.90;99.90;;;2.13;100.00;99751.06;2567912;30;138901;-39
2021/11/03 00:24:34;;;;;;;6.97;3.88;;;3.90;99.90;;;2.20;100.00;99750.31;2566147;30;137037;-40
2021/11/03 00:27:02;;;;;;;6.05;3.55;;;4.00;99.90;;;2.17;100.00;99748.00;2566733;30;138970;-39
2021/11/03 00:29:30;;;;;;;9.48;3.72;;;4.00;99.90;;;2.08;100.00;99748.06;2569447;30;137728;-39
2021/11/03 00:31:57;;;;;;;7.35;3.55;;;3.90;99.90;;;2.04;100.00;99745.94;2568160;30;138468;-39
2021/11/03 00:34:25;;;;;;;7.35;3.72;;;3.90;99.90;;;2.05;100.00;99743.03;2567823;30;138218;-39
2021/11/03 00:36:53;;;;;;;8.57;4.30;;;3.90;99.90;;;2.10;100.00;99737.13;2568570;30;138272;-39
2021/11/03 00:39:22;;;;;;;8.55;3.95;;;3.90;99.90;;;2.13;100.00;99742.13;2568166;30;138374;-40
2021/11/03 00:41:51;;;;;;;7.32;3.92;;;4.00;99.90;;;2.12;100.00;99740.47;2567821;30;138563;-39
2021/11/03 00:44:19;;;;;;;;;;;4.00;99.90;;;2.12;100.00;99743.16;2567686;30;139211;-39
2021/11/03 00:46:47;;;;;;;7.00;3.93;;;4.00;99.90;;;2.12;100.00;99738.63;2567167;30;139701;-39
2021/11/03 00:49:16;;;;;;;;;;;4.00;99.90;;;2.09;100.00;99735.47;2568602;30;138149;-39
2021/11/03 00:51:46;;;;;;;7.57;3.65;;;4.00;99.90;;;2.08;100.00;99726.53;2568244;30;140485;-39
2021/11/03 00:54:14;;;;;;;7.85;3.90;;;4.00;99.90;;;2.05;100.00;99721.53;2568388;30;138735;-39
2021/11/03 00:56:42;;;;;;;6.13;3.70;;;3.90;99.90;;;2.00;100.00;99718.56;2567326;30;139545;-39
2021/11/03 00:59:10;;;;;;;6.15;3.60;;;3.90;99.90;;;1.93;100.00;99723.00;2568789;30;138414;-39
2021/11/03 01:01:37;;;;;;;6.72;4.13;;;3.80;99.90;;;1.94;100.00;99714.72;2565838;30;139364;-39
2021/11/03 01:04:06;;;;;;;7.00;3.88;;;3.80;99.90;;;1.94;100.00;99721.97;2568921;30;137360;-39
2021/11/03 01:06:34;;;;;;;;;;;3.80;99.90;;;1.92;100.00;99719.47;2568419;30;138600;-39
2021/11/03 01:09:03;;;;;;;6.78;3.95;;;3.80;99.90;;;1.91;100.00;99716.97;2566247;30;136888;-39
2021/11/03 01:11:30;;;;;;;7.68;4.25;;;3.80;99.90;;;1.88;100.00;99718.16;2568271;30;138964;-40
2021/11/03 01:14:06;;;;;;;8.65;4.22;;;3.80;99.90;;;1.87;100.00;99716.50;2569424;30;136785;-39
2021/11/03 01:16:34;;;;;;;8.57;4.75;;;3.80;99.90;;;1.91;100.00;99727.72;2567982;30;138801;-39
2021/11/03 01:19:06;;;;;;;8.15;4.18;;;3.80;99.90;;;1.92;100.00;99732.91;2568153;30;138338;-39
2021/11/03 01:21:36;;;;;;;10.80;4.45;;;3.80;99.90;;;1.97;100.00;99729.69;2568119;30;137105;-40
2021/11/03 01:24:06;;;;;;;7.13;4.55;;;3.80;99.90;;;2.03;100.00;99739.72;2569028;30;137279;-40
2021/11/03 01:26:34;;;;;;;6.78;3.75;;;3.80;99.90;;;2.12;100.00;99733.25;2567524;30;138200;-39
2021/11/03 01:29:07;;;;;;;9.20;4.70;;;3.90;99.90;;;2.21;100.00;99731.28;2567537;30;137552;-39
2021/11/03 01:31:36;;;;;;;10.15;4.85;;;4.00;99.90;;;2.32;100.00;99731.84;2568316;30;139089;-39
2021/11/03 01:34:05;;;;;;;9.23;4.50;;;4.10;99.90;;;2.37;100.00;99732.94;2568421;30;136977;-39
2021/11/03 01:36:34;;;;;;;8.95;4.93;;;4.10;99.90;;;2.37;100.00;99732.94;2565440;30;138709;-39
2021/11/03 01:39:06;;;;;;;8.70;4.70;;;4.20;99.90;;;2.42;100.00;99727.03;2568193;30;138075;-39
2021/11/03 01:41:36;;;;;;;7.80;4.47;;;4.20;99.90;;;2.47;100.00;99731.84;2566878;30;139631;-39
2021/11/03 01:44:06;;;;;;;7.93;4.22;;;4.30;99.90;;;2.46;100.00;99728.31;2567095;30;138510;-39
2021/11/03 01:46:53;;;;;;;10.48;5.03;;;4.30;99.90;;;2.53;100.00;99723.03;2568600;30;138847;-39
2021/11/03 01:49:29;;;;;;;7.97;4.35;;;4.30;99.90;;;2.54;100.00;99719.31;2567686;30;137378;-40
2021/11/03 01:52:16;;;;;;;8.25;4.90;;;4.40;99.90;;;2.53;100.00;99713.09;2565453;30;138080;-39
2021/11/03 01:54:52;;;;;;;8.05;4.82;;;4.40;99.90;;;2.56;100.00;99707.34;2567457;30;139012;-39
2021/11/03 01:57:32;;;;;;;8.52;4.90;;;4.40;99.90;;;2.54;100.00;99713.94;2566283;30;140479;-39
2021/11/03 02:00:11;;;;;;;10.00;4.70;;;4.40;99.90;;;2.56;100.00;99711.88;2567361;30;139898;-39
2021/11/03 02:02:47;;;;;;;9.10;5.03;;;4.40;99.90;;;2.57;100.00;99713.53;2567427;30;139798;-39
2021/11/03 02:05:19;;;;;;;7.80;4.50;;;4.40;99.90;;;2.61;100.00;99704.06;2566932;30;137403;-39
2021/11/03 02:07:52;;;;;;;7.90;4.93;;;4.40;99.90;;;2.58;100.00;99694.53;2565614;30;138905;-39
2021/11/03 02:10:21;;;;;;;8.55;4.82;;;4.40;99.90;;;2.56;100.00;99687.63;2567096;30;139567;-39
2021/11/03 02:12:50;;;;;;;7.35;4.50;;;4.40;99.90;;;2.52;100.00;99686.34;2568340;30;140252;-39
2021/11/03 02:15:18;;;;;;;9.75;5.15;;;4.30;99.90;;;2.44;100.00;99680.06;2565035;30;137443;-39
2021/11/03 02:17:51;;;;;;;7.53;4.18;;;4.30;99.90;;;2.39;100.00;99676.25;2566669;30;138440;-39
2021/11/03 02:20:23;;;;;;;7.63;4.15;;;4.30;99.90;;;2.33;100.00;99680.50;2568027;30;139648;-39
2021/11/03 02:23:03;;;;;;;6.28;3.65;;;4.20;99.90;;;2.27;100.00;99674.03;2568511;30;137041;-39
2021/11/03 02:25:52;;;;;;;6.95;4.45;;;4.20;99.90;;;2.25;100.00;99667.97;2568046;30;138402;-40
2021/11/03 02:28:23;;;;;;;8.13;4.45;;;4.10;99.90;;;2.26;100.00;99666.13;2566932;30;138207;-39
2021/11/03 02:30:51;;;;;;;7.32;3.85;;;4.10;99.90;;;2.25;100.00;99673.34;2566518;30;137881;-39
2021/11/03 02:33:24;;;;;;;7.15;4.10;;;4.10;99.90;;;2.20;100.00;99666.88;2567736;30;139438;-39
2021/11/03 02:36:05;;;;;;;9.13;4.25;;;4.10;99.90;;;2.23;100.00;99663.81;2564780;30;137414;-39
2021/11/03 02:38:35;;;;;;;8.80;4.00;;;4.10;99.90;;;2.24;100.00;99660.09;2567779;30;139481;-39
2021/11/03 02:41:15;;;;;;;7.63;4.00;;;4.10;99.90;;;2.28;100.00;99661.41;2567162;30;137333;-39
2021/11/03 02:44:12;;;;;;;6.35;4.20;;;4.10;99.90;;;2.25;100.00;99661.78;2565648;30;137595;-39
2021/11/03 02:46:42;;;;;;;6.18;3.47;;;4.10;99.90;;;2.26;100.00;99660.75;2567152;30;138922;-39
2021/11/03 02:49:11;;;;;;;7.15;4.35;;;4.10;99.90;;;2.27;100.00;99659.72;2567421;30;138261;-39
2021/11/03 02:51:44;;;;;;;;;;;4.10;99.90;;;2.29;100.00;99663.91;2568272;30;139328;-39
2021/11/03 02:54:21;;;;;;;7.45;3.78;;;4.10;99.90;;;2.30;100.00;99656.66;2566972;30;139424;-40
2021/11/03 02:56:54;;;;;;;6.32;3.80;;;4.10;99.90;;;2.31;100.00;99658.31;2571156;30;140128;-38
2021/11/03 02:59:26;;;;;;;10.15;4.75;;;4.10;99.90;;;2.24;100.00;99647.47;2569555;30;138038;-38
2021/11/03 03:01:59;;;;;;;8.27;4.47;;;4.10;99.90;;;2.30;100.00;99660.19;2569799;30;139692;-38
2021/11/03 03:04:34;;;;;;;7.38;4.60;;;4.10;99.90;;;2.32;100.00;99657.31;2568366;30;139755;-38
2021/11/03 03:07:04;;;;;;;9.32;4.45;;;4.10;99.90;;;2.32;100.00;99654.63;2568100;30;137265;-38
2021/11/03 03:09:32;;;;;;;6.97;4.15;;;4.10;99.90;;;2.28;100.00;99656.88;2570922;30;140001;-38
2021/11/03 03:12:05;;;;;;;6.57;3.70;;;4.10;99.90;;;2.28;100.00;99653.31;2568575;30;138060;-38
2021/11/03 03:14:40;;;;;;;6.13;3.60;;;4.10;99.90;;;2.25;100.00;99649.13;2567759;30;137847;-38
2021/11/03 03:17:12;;;;;;;6.53;3.90;;;4.10;99.90;;;2.20;100.00;99645.34;2568118;30;138918;-38
2021/11/03 03:19:42;;;;;;;7.40;3.95;;;4.00;99.90;;;2.15;100.00;99636.00;2568627;30;141585;-38
2021/11/03 03:22:13;;;;;;;6.15;3.67;;;4.00;99.90;;;2.14;100.00;99649.63;2569712;30;138937;-38
2021/11/03 03:24:43;;;;;;;5.55;3.47;;;4.00;99.90;;;2.11;100.00;99655.38;2567160;30;140382;-38
2021/11/03 03:27:11;;;;;;;8.05;3.70;;;4.00;99.90;;;2.08;100.00;99661.94;2568646;30;139901;-38
2021/11/03 03:29:39;;;;;;;6.60;3.65;;;3.90;99.90;;;2.07;100.00;99668.34;2568570;30;139758;-38
2021/11/03 03:32:09;;;;;;;5.88;3.22;;;3.90;99.90;;;2.08;100.00;99671.91;2568667;30;138415;-38
2021/11/03 03:34:37;;;;;;;7.55;4.30;;;3.90;99.90;;;2.10;100.00;99675.22;2567883;30;140791;-38
2021/11/03 03:37:05;;;;;;;6.20;3.70;;;3.90;99.90;;;2.12;100.00;99676.72;2568894;30;139778;-38
2021/11/03 03:39:36;;;;;;;12.20;4.00;;;3.90;99.90;;;2.17;100.00;99676.16;2570112;30;137559;-38
2021/11/03 03:42:14;;;;;;;5.70;3.47;;;4.00;99.90;;;2.22;100.00;99683.69;2567799;30;137492;-38
2021/11/03 03:44:46;;;;;;;7.75;4.22;;;4.00;99.90;;;2.24;100.00;99679.75;2566395;30;139657;-38
2021/11/03 03:47:14;;;;;;;6.90;3.75;;;4.00;99.90;;;2.27;100.00;99682.09;2568867;30;137302;-38
2021/11/03 03:49:42;;;;;;;6.88;4.00;;;4.10;99.90;;;2.33;100.00;99677.00;2569221;30;139639;-38
2021/11/03 03:52:14;;;;;;;5.82;3.25;;;4.10;99.90;;;2.36;100.00;99693.59;2568672;30;139910;-38
2021/11/03 03:54:43;;;;;;;6.60;3.72;;;4.10;99.90;;;2.37;100.00;99686.38;2569011;30;140515;-38
2021/11/03 03:57:11;;;;;;;9.10;4.15;;;4.20;99.90;;;2.36;100.00;99695.47;2572201;30;139334;-38
2021/11/03 03:59:38;;;;;;;6.68;4.47;;;4.20;99.90;;;2.42;100.00;99692.88;2570402;30;137927;-38
2021/11/03 04:02:07;;;;;;;7.20;4.03;;;4.20;99.90;;;2.52;100.00;99699.81;2564571;30;139173;-38
2021/11/03 04:04:35;;;;;;;7.72;4.43;;;4.30;99.90;;;2.65;100.00;99712.63;2565646;30;139918;-37
2021/11/03 04:07:03;;;;;;;9.77;4.95;;;4.40;99.90;;;2.73;100.00;99707.13;2569004;30;137561;-38
2021/11/03 04:09:31;;;;;;;10.13;5.07;;;4.40;99.90;;;2.77;100.00;99707.59;2567887;30;140355;-38
2021/11/03 04:11:59;;;;;;;9.57;4.93;;;4.50;99.90;;;2.82;100.00;99700.63;2568321;30;139752;-38
2021/11/03 04:14:27;;;;;;;8.93;5.00;;;4.60;99.90;;;2.86;100.00;99707.28;2570115;30;140317;-38
2021/11/03 04:16:55;;;;;;;9.23;4.75;;;4.60;99.90;;;2.91;100.00;99711.28;2566602;30;139348;-38
2021/11/03 04:19:22;;;;;;;11.50;5.90;;;4.60;99.90;;;3.00;100.00;99708.28;2569233;30;138403;-38
2021/11/03 04:21:53;;;;;;;9.80;5.55;;;4.70;99.90;;;3.00;100.00;99702.88;2567178;30;140299;-38
2021/11/03 04:24:37;;;;;;;9.82;5.78;;;4.80;99.90;;;3.05;100.00;99710.41;2567034;30;140206;-38
2021/11/03 04:27:05;;;;;;;9.05;4.82;;;4.80;99.90;;;3.07;100.00;99712.91;2568988;30;139193;-38
2021/11/03 04:29:33;;;;;;;9.38;5.25;;;4.80;99.90;;;3.05;100.00;99709.56;2568227;30;139920;-38
2021/11/03 04:32:01;;;;;;;10.20;5.68;;;4.80;99.90;;;3.05;100.00;99709.56;2571058;30;139115;-38
2021/11/03 04:34:29;;;;;;;9.90;5.82;;;4.80;99.90;;;3.04;100.00;99707.91;2568236;30;138085;-37
2021/11/03 04:37:01;;;;;;;9.52;5.60;;;4.80;99.90;;;3.07;100.00;99710.19;2568024;30;138606;-38
2021/11/03 04:39:31;;;;;;;8.80;5.10;;;4.80;99.90;;;3.05;100.00;99714.94;2568139;30;141303;-38
2021/11/03 04:41:59;;;;;;;8.60;4.97;;;4.80;99.90;;;2.98;100.00;99704.09;2566997;30;139831;-39
2021/11/03 04:44:26;;;;;;;8.35;4.97;;;4.80;99.90;;;2.99;100.00;99713.84;2569966;30;140298;-38
2021/11/03 04:46:55;;;;;;;9.57;5.45;;;4.80;99.90;;;2.96;100.00;99712.38;2568387;30;137538;-38
2021/11/03 04:49:27;;;;;;;11.10;5.40;;;4.70;99.90;;;2.97;100.00;99710.50;2567173;30;139706;-38
2021/11/03 04:51:57;;;;;;;8.43;5.00;;;4.80;99.90;;;3.01;100.00;99712.63;2569963;30;138991;-38
2021/11/03 04:54:27;;;;;;;10.23;5.28;;;4.80;99.90;;;3.04;100.00;99707.91;2567681;30;139484;-38
2021/11/03 04:56:55;;;;;;;9.25;5.22;;;4.80;99.90;;;3.05;100.00;99706.88;2570287;30;139178;-38
2021/11/03 04:59:23;;;;;;;8.25;4.72;;;4.80;99.90;;;3.02;100.00;99705.38;2567387;30;138475;-38
2021/11/03 05:01:53;;;;;;;7.57;4.45;;;4.80;99.90;;;3.02;100.00;99697.28;2569945;30;139059;-38
2021/11/03 05:04:22;;;;;;;8.05;4.70;;;4.80;99.90;;;3.01;100.00;99701.84;2566831;30;138361;-37
2021/11/03 05:06:50;;;;;;;8.88;5.20;;;4.80;99.90;;;2.97;100.00;99687.09;2565835;30;139015;-38
2021/11/03 05:09:19;;;;;;;7.85;4.53;;;4.80;99.90;;;3.00;100.00;99697.50;2570215;30;139763;-38
2021/11/03 05:11:49;;;;;;;7.75;4.30;;;4.80;99.90;;;2.97;100.00;99689.78;2567519;30;140285;-38
2021/11/03 05:14:17;;;;;;;7.93;4.32;;;4.80;99.90;;;2.97;100.00;99686.25;2570324;30;138202;-37
2021/11/03 05:16:49;;;;;;;8.90;4.78;;;4.80;99.90;;;2.91;100.00;99682.44;2568534;30;137339;-38
2021/11/03 05:19:29;;;;;;;7.60;4.20;;;4.70;99.90;;;2.95;100.00;99682.91;2568900;30;139609;-38
2021/11/03 05:22:20;;;;;;;8.77;4.53;;;4.70;99.90;;;2.93;100.00;99677.72;2568479;30;139415;-38
2021/11/03 05:24:49;;;;;;;7.60;4.55;;;4.70;99.90;;;2.94;100.00;99678.56;2570135;30;137375;-38
2021/11/03 05:27:21;;;;;;;9.50;4.40;;;4.70;99.90;;;2.90;100.00;99679.97;2572393;30;137757;-38
2021/11/03 05:29:48;;;;;;;8.50;4.53;;;4.70;99.90;;;2.92;100.00;99694.06;2570088;30;138607;-38
2021/11/03 05:32:16;;;;;;;7.57;4.43;;;4.70;99.90;;;2.91;100.00;99689.72;2570591;30;138493;-38
2021/11/03 05:34:44;;;;;;;8.52;4.22;;;4.70;99.90;;;2.83;100.00;99679.88;2569152;30;138849;-38
2021/11/03 05:37:17;;;;;;;8.43;4.95;;;4.70;99.90;;;2.88;100.00;99689.06;2571651;30;136685;-38
2021/11/03 05:39:45;;;;;;;9.57;4.53;;;4.70;99.90;;;2.87;100.00;99683.84;2570769;30;139269;-38
2021/11/03 05:42:13;;;;;;;8.75;4.68;;;4.70;99.90;;;2.86;100.00;99679.50;2566809;30;139101;-38
2021/11/03 05:44:41;;;;;;;11.25;5.18;;;4.70;99.90;;;2.85;100.00;99685.91;2568860;30;138862;-38
2021/11/03 05:47:19;;;;;;;10.73;5.57;;;4.60;99.90;;;2.88;100.00;99693.59;2569892;30;137609;-38
2021/11/03 05:49:47;;;;;;;;;;;4.70;99.90;;;2.90;100.00;99691.56;2567235;30;138344;-38
2021/11/03 05:52:15;;;;;;;6.90;3.85;;;4.70;99.90;;;2.88;100.00;99688.22;2568446;30;137014;-38
2021/11/03 05:54:46;;;;;;;;;;;4.70;99.90;;;2.82;100.00;99683.59;2572396;30;139365;-37
2021/11/03 05:57:30;;;;;;;7.75;4.35;;;4.60;99.90;;;2.86;100.00;99683.03;2569539;30;137844;-38
2021/11/03 06:00:03;;;;;;;6.47;4.13;;;4.70;99.90;;;2.83;100.00;99688.81;2569279;30;138211;-38
2021/11/03 06:02:38;;;;;;;7.22;3.97;;;4.60;99.90;;;2.82;100.00;99689.00;2570274;30;137155;-38
2021/11/03 06:05:07;;;;;;;7.00;4.20;;;4.60;99.90;;;2.81;100.00;99681.94;2569777;30;137460;-38
2021/11/03 06:07:35;;;;;;;7.53;4.68;;;4.60;99.90;;;2.79;100.00;99684.84;2569208;30;137053;-38
2021/11/03 06:10:06;;;;;;;7.03;4.18;;;4.60;99.90;;;2.79;100.00;99673.22;2569771;30;138327;-38
2021/11/03 06:12:35;;;;;;;8.35;4.30;;;4.60;99.90;;;2.81;100.00;99673.84;2570455;30;136740;-38
2021/11/03 06:15:03;;;;;;;7.80;4.25;;;4.60;99.90;;;2.80;100.00;99675.72;2568806;30;137518;-38
2021/11/03 06:17:31;;;;;;;8.27;4.53;;;4.60;99.90;;;2.83;100.00;99672.66;2568493;30;138445;-38
2021/11/03 06:19:58;;;;;;;11.20;4.38;;;4.60;99.90;;;2.81;100.00;99676.53;2567533;30;138157;-38
2021/11/03 06:22:26;;;;;;;8.77;4.32;;;4.60;99.90;;;2.81;100.00;99676.53;2568649;30;136719;-38
2021/11/03 06:24:55;;;;;;;9.55;5.55;;;4.60;99.90;;;2.82;100.00;99662.03;2566221;30;137362;-38
2021/11/03 06:27:23;;;;;;;9.18;5.53;;;4.60;99.90;;;2.81;100.00;99658.53;2569855;30;137105;-38
2021/11/03 06:29:51;;;;;;;8.60;4.80;;;4.60;99.90;;;2.84;100.00;99663.53;2571069;30;138309;-38
2021/11/03 06:32:18;;;;;;;7.40;4.60;;;4.60;99.90;;;2.87;100.00;99660.47;2571376;30;137664;-38
2021/11/03 06:34:46;;;;;;;8.05;4.60;;;4.60;99.90;;;2.91;100.00;99670.84;2570413;30;137968;-37
2021/11/03 06:37:14;;;;;;;9.43;4.70;;;4.70;99.90;;;2.91;100.00;99668.97;2567689;30;137204;-38
2021/11/03 06:39:41;;;;;;;9.43;4.97;;;4.70;99.90;;;2.95;100.00;99673.00;2568813;30;138169;-38
2021/11/03 06:42:09;;;;;;;7.93;4.65;;;4.70;99.90;;;2.96;100.00;99671.09;2569849;30;137080;-38
2021/11/03 06:44:37;;;;;;;7.93;4.75;;;4.70;99.90;;;2.98;100.00;99669.06;2568718;30;138372;-37
2021/11/03 06:47:05;;;;;;;7.97;4.63;;;4.70;99.90;;;2.99;100.00;99668.88;2571334;30;138483;-38
2021/11/03 06:49:32;;;;;;;8.27;4.75;;;4.70;99.90;;;2.98;100.00;99671.75;2569416;30;138282;-38
2021/11/03 06:52:00;;;;;;;8.75;4.60;;;4.70;99.90;;;2.97;100.00;99660.16;2568036;30;137854;-38
2021/11/03 06:54:28;;;;;;;9.52;4.55;;;4.80;99.90;;;3.04;100.00;99675.56;2569545;30;136760;-38
2021/11/03 06:56:56;;;;;;;7.25;4.50;;;4.80;99.90;;;3.05;100.00;99678.06;2568255;30;138758;-38
2021/11/03 06:59:25;;;;;;;6.70;4.07;;;4.80;99.90;;;3.00;100.00;99667.84;2567895;30;138510;-38
2021/11/03 07:01:52;;;;;;;7.03;4.35;;;4.80;99.90;;;3.08;100.00;99680.38;2570149;30;138390;-38
2021/11/03 07:04:20;;;;;;;8.65;4.68;;;4.80;99.90;;;3.09;100.00;99676.66;2567661;30;137472;-37
2021/11/03 07:06:49;;;;;;;9.82;4.85;;;4.80;99.90;;;3.11;100.00;99668.38;2568756;30;137639;-38
2021/11/03 07:09:17;;;;;;;9.55;4.95;;;4.80;99.90;;;3.13;100.00;99677.09;2568306;30;138383;-38
2021/11/03 07:11:44;;;;;;;9.45;4.80;;;4.90;99.90;;;3.15;100.00;99675.03;2572941;30;137634;-38
2021/11/03 07:14:12;;;;;;;10.15;5.25;;;4.90;99.90;;;3.10;100.00;99662.16;2567184;30;139348;-38
2021/11/03 07:16:40;;;;;;;9.52;5.63;;;4.90;99.90;;;3.19;100.00;99676.34;2568895;30;137741;-38
2021/11/03 07:19:08;;;;;;;10.00;4.50;;;4.90;99.90;;;3.23;100.00;99684.84;2568644;30;138585;-38
2021/11/03 07:21:36;;;;;;;8.63;5.00;;;4.90;99.90;;;3.27;100.00;99669.97;2570003;30;136826;-38
2021/11/03 07:24:04;;;;;;;8.23;4.70;;;5.00;99.90;;;3.28;100.00;99655.47;2569187;30;138301;-38
2021/11/03 07:26:32;;;;;;;;;;;5.00;99.90;;;3.33;100.00;99662.97;2569765;30;138594;-38
2021/11/03 07:28:59;;;;;;;8.23;4.68;;;5.00;99.90;;;3.35;100.00;99656.38;2569781;30;137581;-38
2021/11/03 07:31:27;;;;;;;9.70;5.25;;;5.00;99.90;;;3.40;100.00;99653.06;2566962;30;136776;-38
2021/11/03 07:33:54;;;;;;;9.52;5.15;;;5.10;99.90;;;3.42;100.00;99664.50;2569511;30;138161;-38
2021/11/03 07:36:22;;;;;;;8.88;5.43;;;5.10;99.90;;;3.47;100.00;99658.53;2569166;30;138255;-37
2021/11/03 07:38:51;;;;;;;9.80;4.85;;;5.20;99.90;;;3.50;100.00;99652.75;2568130;30;138620;-38
2021/11/03 07:41:31;;;;;;;8.98;5.30;;;5.20;99.90;;;3.54;100.00;99657.56;2570591;30;136706;-38
2021/11/03 07:44:01;;;;;;;11.85;5.60;;;5.20;99.90;;;3.59;100.00;99657.81;2567665;30;138305;-38
2021/11/03 07:46:29;;;;;;;9.40;5.15;;;5.30;99.90;;;3.65;100.00;99656.19;2570018;30;137664;-38
2021/11/03 07:48:57;;;;;;;9.93;5.50;;;5.30;99.90;;;3.70;100.00;99653.75;2567690;30;139153;-38
2021/11/03 07:51:26;;;;;;;10.43;5.22;;;5.40;99.90;;;3.78;100.00;99660.00;2571073;30;137538;-38
2021/11/03 07:53:59;;;;;;;11.15;5.70;;;5.40;99.90;;;3.84;100.00;99653.81;2569056;30;139296;-37
2021/11/03 07:56:31;;;;;;;13.65;5.20;;;5.50;99.90;;;3.91;100.00;99653.88;2571324;30;136980;-38
2021/11/03 07:58:59;;;;;;;10.38;6.28;;;5.60;99.90;;;3.97;100.00;99656.63;2569818;30;138128;-38
2021/11/03 08:01:27;;;;;;;11.55;5.95;;;5.60;99.90;;;4.01;100.00;99659.78;2568772;30;136746;-38
2021/11/03 08:03:55;;;;;;;10.10;5.80;;;5.70;99.90;;;4.14;100.00;99665.25;2569637;30;138138;-38
2021/11/03 08:06:23;;;;;;;11.38;6.03;;;5.80;99.90;;;4.14;100.00;99673.34;2569436;30;137783;-38
2021/11/03 08:11:29;;;;;;;10.20;5.70;;;5.80;99.90;;;4.18;100.00;99684.59;2567934;30;137096;-37
2021/11/03 08:13:57;;;;;;;10.00;5.63;;;5.80;99.90;;;4.19;100.00;99683.56;2566062;30;140601;-38
2021/11/03 08:16:24;;;;;;;14.45;6.93;;;5.80;99.90;;;4.25;100.00;99688.16;2568958;30;137410;-38
2021/11/03 08:18:52;;;;;;;11.38;6.15;;;5.90;99.90;;;4.29;100.00;99685.91;2566738;30;137445;-38
2021/11/03 08:21:26;;;;;;;11.63;6.50;;;5.90;99.90;;;4.32;100.00;99689.00;2568700;30;137778;-38
2021/11/03 08:23:53;;;;;;;10.73;6.32;;;5.90;99.90;;;4.41;100.00;99688.88;2567690;30;138309;-38
2021/11/03 08:26:22;;;;;;;13.90;6.90;;;6.00;99.90;;;4.49;100.00;99690.56;2569111;30;137337;-38
2021/11/03 08:28:49;;;;;;;12.27;6.45;;;6.10;99.90;;;4.54;100.00;99688.94;2570340;30;137647;-38
2021/11/03 08:31:17;;;;;;;12.65;6.43;;;6.10;99.90;;;4.57;100.00;99696.63;2568618;30;137192;-38
2021/11/03 08:33:47;;;;;;;13.40;7.00;;;6.20;99.90;;;4.65;100.00;99697.50;2572211;30;138214;-38
2021/11/03 08:36:18;;;;;;;15.50;7.32;;;6.20;99.90;;;4.70;100.00;99695.84;2568793;30;136928;-38
2021/11/03 08:38:56;;;;;;;12.82;6.72;;;6.30;99.90;;;4.77;100.00;99697.75;2571072;30;137857;-38
2021/11/03 08:41:27;;;;;;;10.80;6.10;;;6.40;99.90;;;4.78;100.00;99696.72;2569154;30;138182;-38
2021/11/03 08:43:56;;;;;;;15.02;7.60;;;6.40;99.90;;;4.81;100.00;99697.13;2571404;30;136783;-38
2021/11/03 08:46:24;;;;;;;14.48;7.07;;;6.40;99.90;;;4.82;100.00;99687.19;2569610;30;137399;-38
2021/11/03 08:49:02;;;;;;;13.82;7.00;;;6.40;99.90;;;4.84;100.00;99691.31;2568876;30;139319;-38
2021/11/03 08:51:33;;;;;;;14.50;6.43;;;6.50;99.90;;;4.87;100.00;99695.50;2570539;30;137847;-38
2021/11/03 08:54:07;;;;;;;11.02;6.40;;;6.50;99.90;;;4.87;100.00;99690.09;2567225;30;138031;-38
2021/11/03 08:56:39;;;;;;;10.93;5.97;;;6.50;99.90;;;4.89;100.00;99693.44;2569701;30;137687;-37
2021/11/03 08:59:08;;;;;;;12.57;6.97;;;6.50;99.90;;;4.88;100.00;99691.75;2574200;30;138197;-40
2021/11/03 09:01:44;;;;;;;10.90;6.43;;;6.50;99.90;;;4.94;100.00;99695.53;2567455;30;138388;-39
2021/11/03 09:04:12;;;;;;;10.00;5.45;;;6.60;99.90;;;4.95;100.00;99686.41;2566984;30;139412;-39
2021/11/03 09:06:40;;;;;;;11.00;5.80;;;6.60;99.90;;;5.03;100.00;99689.72;2567151;30;137379;-39
2021/11/03 09:09:08;;;;;;;13.00;6.00;;;6.60;99.90;;;5.04;100.00;99683.31;2566735;30;138438;-39
2021/11/03 09:11:35;;;;;;;12.68;5.43;;;6.70;99.90;;;5.03;100.00;99676.19;2569308;30;137464;-39
2021/11/03 09:14:04;;;;;;;12.75;5.90;;;6.70;99.90;;;5.12;100.00;99684.16;2566920;30;138010;-39
2021/11/03 09:16:32;;;;;;;14.15;5.95;;;6.70;99.90;;;5.09;100.00;99682.66;2568180;30;137703;-40
2021/11/03 09:19:00;;;;;;;12.35;5.78;;;6.70;99.90;;;5.12;100.00;99686.84;2569243;30;138079;-39
2021/11/03 09:21:28;;;;;;;11.40;6.03;;;6.70;99.90;;;5.18;100.00;99696.84;2568041;30;137944;-39
2021/11/03 09:23:55;;;;;;;9.38;6.25;;;6.80;99.90;;;5.23;100.00;99688.13;2569364;30;138375;-39
2021/11/03 09:26:24;;;;;;;12.70;6.40;;;6.80;99.90;;;5.26;100.00;99698.53;2567893;30;136851;-40
2021/11/03 09:28:52;;;;;;;10.02;5.85;;;6.80;99.90;;;5.32;100.00;99692.28;2567641;30;138435;-40
2021/11/03 09:31:20;;;;;;;10.15;5.75;;;6.90;99.90;;;5.37;100.00;99694.38;2568420;30;137496;-39
2021/11/03 09:33:47;;;;;;;11.57;5.93;;;6.90;99.90;;;5.41;100.00;99691.03;2568000;30;136671;-40
2021/11/03 09:36:21;;;;;;;11.20;6.32;;;6.90;99.90;;;5.47;100.00;99697.50;2567912;30;137554;-40
2021/11/03 09:38:50;;;;;;;13.57;5.93;;;7.00;99.90;;;5.45;100.00;99702.28;2567325;30;139063;-40
2021/11/03 09:41:31;;;;;;;13.93;6.72;;;7.00;99.90;;;5.44;100.00;99695.22;2568435;30;136914;-39
2021/11/03 09:44:15;;;;;;;9.30;5.80;;;7.00;99.90;;;5.44;100.00;99698.78;2568204;30;137500;-39
2021/11/03 09:46:48;;;;;;;10.20;6.00;;;7.00;99.90;;;5.50;100.00;99688.16;2568096;30;136830;-39
2021/11/03 09:49:39;;;;;;;12.55;6.22;;;7.00;99.90;;;5.55;100.00;99686.47;2567977;30;138210;-39
2021/11/03 09:52:24;;;;;;;15.00;6.28;;;7.10;99.90;;;5.58;100.00;99688.78;2568506;30;137008;-39
2021/11/03 09:55:07;;;;;;;11.07;6.32;;;7.10;99.90;;;5.60;100.00;99694.81;2568056;30;137228;-40
2021/11/03 09:57:41;;;;;;;12.50;6.35;;;7.20;99.90;;;5.67;100.00;99683.16;2567633;30;137391;-39
2021/11/03 10:00:41;;;;;;;13.02;6.85;;;7.20;99.90;;;5.66;100.00;99682.31;2568260;30;137691;-39
2021/11/03 10:03:44;;;;;;;10.82;6.15;;;7.20;99.90;;;5.78;100.00;99673.59;2568659;30;137372;-39
2021/11/03 10:06:34;;;;;;;13.75;6.68;;;7.30;99.90;;;5.82;100.00;99681.06;2567696;30;138234;-39
2021/11/03 10:09:03;;;;;;;11.98;6.65;;;7.30;99.90;;;5.80;100.00;99677.72;2568808;30;138257;-39
2021/11/03 10:11:40;;;;;;;11.25;6.07;;;7.30;99.90;;;5.85;100.00;99663.56;2568658;30;138575;-39
2021/11/03 10:14:09;;;;;;;10.95;6.53;;;7.40;99.90;;;5.93;100.00;99674.19;2567990;30;136915;-39
2021/11/03 10:17:35;;;;;;;12.13;6.80;;;7.40;99.90;;;6.02;100.00;99678.38;2567163;30;138218;-39
2021/11/03 10:20:30;;;;;;;13.85;6.47;;;7.50;99.90;;;6.06;100.00;99673.38;2567215;30;137568;-39
2021/11/03 10:23:26;;;;;;;14.18;6.90;;;7.60;99.90;;;6.10;100.00;99671.06;2568918;30;138067;-39
2021/11/03 10:26:06;;;;;;;14.48;6.75;;;7.60;99.90;;;6.10;100.00;99674.63;2567493;30;137730;-39
2021/11/03 10:28:42;;;;;;;10.57;6.25;;;7.70;99.90;;;6.08;100.00;99671.28;2568111;30;137228;-39
2021/11/03 10:31:32;;;;;;;12.35;6.97;;;7.70;99.90;;;6.11;100.00;99672.75;2567769;30;138451;-39
2021/11/03 10:34:04;;;;;;;;;;;7.70;99.90;;;6.09;100.00;99672.13;2569274;30;138205;-40
2021/11/03 10:36:42;;;;;;;10.10;6.25;;;7.70;99.90;;;6.07;100.00;99676.91;2568094;30;137248;-40
2021/11/03 10:39:20;;;;;;;12.23;6.90;;;7.60;99.90;;;6.10;100.00;99671.06;2566722;30;139444;-39
2021/11/03 10:42:34;;;;;;;13.75;6.22;;;7.70;99.90;;;6.08;100.00;99667.75;2566757;30;138417;-39